createdAt,value
2019-01-17T00:00:03.740Z,99531.99
2019-01-17T00:02:41.171Z,99523.23
2019-01-17T00:05:14.349Z,99530.63
2019-01-17T00:08:03.664Z,99527.06
2019-01-17T00:10:36.834Z,99520.03
2019-01-17T00:13:10.140Z,99539.38
2019-01-17T00:15:56.269Z,99536.34
2019-01-17T00:18:47.345Z,99538.95
2019-01-17T00:21:29.312Z,99538.46
2019-01-17T00:24:02.929Z,99530.55
2019-01-17T00:26:36.279Z,99537.97
2019-01-17T00:29:12.483Z,99541.44
2019-01-17T00:31:45.885Z,99529.19
2019-01-17T00:34:37.561Z,99526.13
2019-01-17T00:37:20.480Z,99529.20
2019-01-17T00:40:01.984Z,99520.41
2019-01-17T00:42:51.050Z,99518.63
2019-01-17T00:45:30.298Z,99517.80
2019-01-17T00:48:09.815Z,99524.73
2019-01-17T00:50:46.014Z,99524.30
2019-01-17T00:53:26.677Z,99520.31
2019-01-17T00:56:02.589Z,99525.57
2019-01-17T00:58:45.013Z,99521.17
2019-01-17T01:01:25.340Z,99524.27
2019-01-17T01:04:19.195Z,99520.31
2019-01-17T01:07:01.233Z,99521.63
2019-01-17T01:09:36.113Z,99526.87
2019-01-17T01:12:10.540Z,99523.50
2019-01-17T01:15:02.902Z,99524.78
2019-01-17T01:17:37.650Z,99522.99
2019-01-17T01:20:12.941Z,99520.72
2019-01-17T01:22:55.122Z,99516.72
2019-01-17T01:25:34.106Z,99509.66
2019-01-17T01:28:09.822Z,99513.16
2019-01-17T01:30:50.483Z,99505.84
2019-01-17T01:33:29.555Z,99510.19
2019-01-17T01:36:04.042Z,99510.98
2019-01-17T01:38:48.971Z,99502.72
2019-01-17T01:41:39.631Z,99502.27
2019-01-17T01:44:29.142Z,99504.48
2019-01-17T01:47:06.933Z,99501.45
2019-01-17T01:49:40.188Z,99500.03
2019-01-17T01:52:13.497Z,99506.14
2019-01-17T01:54:44.946Z,99495.22
2019-01-17T01:57:16.583Z,99500.05
2019-01-17T01:59:48.118Z,99512.36
2019-01-17T02:02:19.581Z,99499.16
2019-01-17T02:04:51.545Z,99496.47
2019-01-17T02:07:24.739Z,99486.78
2019-01-17T02:09:56.551Z,99488.50
2019-01-17T02:12:28.294Z,99493.28
2019-01-17T02:15:00.085Z,99491.95
2019-01-17T02:17:31.805Z,99495.86
2019-01-17T02:20:05.115Z,99501.09
2019-01-17T02:22:36.846Z,99495.80
2019-01-17T02:25:09.981Z,99494.92
2019-01-17T02:27:41.677Z,99503.66
2019-01-17T02:30:14.999Z,99500.11
2019-01-17T02:32:48.367Z,99495.69
2019-01-17T02:35:20.110Z,99498.31
2019-01-17T02:37:53.356Z,99489.10
2019-01-17T02:40:25.102Z,99496.91
2019-01-17T02:42:56.770Z,99490.33
2019-01-17T02:45:28.674Z,99492.95
2019-01-17T02:48:00.417Z,99486.88
2019-01-17T02:50:38.968Z,99480.78
2019-01-17T02:53:10.633Z,99479.02
2019-01-17T02:55:45.298Z,99475.03
2019-01-17T02:58:18.678Z,99469.77
2019-01-17T03:00:54.555Z,99455.34
2019-01-17T03:03:26.422Z,99456.23
2019-01-17T03:05:58.475Z,99448.31
2019-01-17T03:08:31.951Z,99450.49
2019-01-17T03:11:03.811Z,99451.77
2019-01-17T03:13:35.749Z,99449.63
2019-01-17T03:16:09.162Z,99440.00
2019-01-17T03:18:40.925Z,99439.15
2019-01-17T03:21:17.390Z,99435.64
2019-01-17T03:23:54.888Z,99437.39
2019-01-17T03:26:28.339Z,99438.25
2019-01-17T03:29:02.102Z,99426.86
2019-01-17T03:31:36.347Z,99418.12
2019-01-17T03:34:08.176Z,99413.34
2019-01-17T03:36:41.477Z,99414.66
2019-01-17T03:39:13.207Z,99412.97
2019-01-17T03:41:48.278Z,99411.72
2019-01-17T03:44:22.873Z,99409.56
2019-01-17T03:47:04.573Z,99396.86
2019-01-17T03:49:38.955Z,99406.92
2019-01-17T03:52:14.721Z,99395.55
2019-01-17T03:54:50.083Z,99386.38
2019-01-17T03:57:22.857Z,99393.02
2019-01-17T03:59:54.742Z,99390.86
2019-01-17T04:02:26.591Z,99379.94
2019-01-17T04:04:58.452Z,99380.40
2019-01-17T04:07:30.215Z,99386.52
2019-01-17T04:10:15.108Z,99389.59
2019-01-17T04:12:50.805Z,99380.83
2019-01-17T04:15:22.356Z,99370.36
2019-01-17T04:17:56.921Z,99369.92
2019-01-17T04:20:40.136Z,99383.05
2019-01-17T04:23:15.495Z,99367.31
2019-01-17T04:25:57.953Z,99359.41
2019-01-17T04:28:32.526Z,99364.66
2019-01-17T04:31:12.988Z,99367.27
2019-01-17T04:33:39.444Z,99363.33
2019-01-17T04:36:16.425Z,99358.98
2019-01-17T04:38:52.013Z,99355.90
2019-01-17T04:41:24.445Z,99358.06
2019-01-17T04:44:01.539Z,99357.62
2019-01-17T04:46:48.427Z,99353.67
2019-01-17T04:49:21.527Z,99347.95
2019-01-17T04:51:54.755Z,99345.73
2019-01-17T04:54:26.811Z,99339.14
2019-01-17T04:57:01.434Z,99343.92
2019-01-17T04:59:38.074Z,99340.41
2019-01-17T05:02:17.147Z,99328.98
2019-01-17T05:04:48.747Z,99333.36
2019-01-17T05:07:28.746Z,99328.53
2019-01-17T05:09:57.494Z,99329.41
2019-01-17T05:12:36.997Z,99330.27
2019-01-17T05:15:07.713Z,99324.11
2019-01-17T05:17:42.647Z,99324.53
2019-01-17T05:20:17.028Z,99318.41
2019-01-17T05:22:48.641Z,99324.97
2019-01-17T05:25:20.273Z,99325.38
2019-01-17T05:31:52.539Z,99330.59
2019-01-17T05:34:28.251Z,99323.95
2019-01-17T05:37:13.280Z,99329.17
2019-01-17T05:42:32.793Z,99326.92
2019-01-17T05:45:36.176Z,99321.68
2019-01-17T05:48:27.151Z,99322.95
2019-01-17T05:51:04.683Z,99319.92
2019-01-17T05:54:43.312Z,99322.13
2019-01-17T05:57:52.306Z,99329.13
2019-01-17T05:59:58.841Z,99322.58
2019-01-17T06:16:12.348Z,99316.91
2019-01-17T06:19:04.955Z,99318.20
2019-01-17T06:22:09.375Z,99311.65
2019-01-17T06:24:48.036Z,99312.09
2019-01-17T06:27:37.469Z,99305.98
2019-01-17T06:31:01.204Z,99309.50
2019-01-17T06:34:08.987Z,99301.64
2019-01-17T06:37:03.424Z,99296.40
2019-01-17T06:39:50.586Z,99292.59
2019-01-17T07:13:34.451Z,99284.66
2019-01-17T07:30:31.428Z,99292.87
2019-01-17T08:17:34.990Z,99303.97
2019-01-17T08:26:49.397Z,99300.28
2019-01-17T11:26:10.835Z,99337.52
2019-01-17T11:29:25.627Z,99336.12
2019-01-17T11:36:29.118Z,99384.17
2019-01-17T13:13:51.892Z,99335.68
2019-01-17T13:16:26.756Z,99337.26
2019-01-17T13:21:04.012Z,99327.19
2019-01-17T13:26:06.667Z,99336.30
2019-01-17T13:28:44.890Z,99331.03
2019-01-17T13:31:26.056Z,99321.06
2019-01-17T13:34:11.962Z,99304.05
2019-01-17T13:47:25.448Z,99306.03
2019-01-17T14:34:51.214Z,99309.08
2019-01-17T14:37:38.150Z,99311.62
2019-01-17T14:43:39.594Z,99329.89
2019-01-17T14:46:17.939Z,99337.19
2019-01-17T14:48:54.597Z,99338.48
2019-01-17T14:51:26.886Z,99327.56
2019-01-17T14:54:03.117Z,99348.89
2019-01-17T14:56:48.984Z,99342.29
2019-01-17T15:02:25.313Z,99343.48
2019-01-17T15:05:30.392Z,99350.45
2019-01-17T15:08:35.481Z,99354.39
2019-01-17T15:21:52.234Z,99365.25
2019-01-17T15:21:53.412Z,99385.05
2019-01-17T15:24:35.101Z,99389.83
2019-01-17T15:27:13.780Z,99420.90
2019-01-17T15:29:45.660Z,99433.16
2019-01-17T15:32:23.186Z,99449.30
2019-01-17T15:35:18.373Z,99468.45
2019-01-17T15:37:49.097Z,99460.44
2019-01-17T15:40:33.077Z,99464.55
2019-01-17T15:43:14.829Z,99470.48
2019-01-17T15:56:12.446Z,99482.67
2019-01-17T16:06:06.185Z,99515.33
2019-01-17T16:08:38.943Z,99518.02
2019-01-17T16:11:50.533Z,99529.00
2019-01-17T16:14:28.258Z,99540.42
2019-01-17T16:17:34.486Z,99550.50
2019-01-17T16:20:25.754Z,99561.81
2019-01-17T16:23:08.491Z,99559.05
2019-01-17T16:30:02.837Z,99560.52
2019-01-17T16:39:39.973Z,99586.17
2019-01-17T16:42:26.341Z,99587.52
2019-01-17T16:45:35.467Z,99585.72
2019-01-17T16:48:16.360Z,99599.22
2019-01-17T16:50:52.934Z,99596.00
2019-01-17T16:53:38.853Z,99595.39
2019-01-17T16:56:59.691Z,99588.72
2019-01-17T17:05:48.509Z,99619.53
2019-01-17T17:12:09.882Z,99630.66
2019-01-17T17:15:06.315Z,99628.77
2019-01-17T17:18:01.515Z,99635.17
2019-01-17T17:20:42.945Z,99642.86
2019-01-17T17:23:23.687Z,99649.27
2019-01-17T17:25:59.541Z,99653.61
2019-01-17T17:28:33.155Z,99658.77
2019-01-17T17:31:13.904Z,99662.27
2019-01-17T18:01:15.781Z,99734.82
2019-01-17T18:03:58.394Z,99752.85
2019-01-17T18:07:13.280Z,99751.36
2019-01-17T18:10:02.489Z,99752.17
2019-01-17T18:12:48.287Z,99767.06
2019-01-17T18:15:49.891Z,99774.88
2019-01-17T18:18:08.833Z,99789.69
2019-01-17T18:23:58.764Z,99775.80
2019-01-17T18:26:45.006Z,99756.13
2019-01-17T18:29:22.501Z,99754.75
2019-01-17T18:32:01.727Z,99771.27
2019-01-17T18:34:48.836Z,99781.69
2019-01-17T18:37:23.092Z,99789.42
2019-01-17T18:40:16.313Z,99789.73
2019-01-17T18:42:42.851Z,99791.39
2019-01-17T18:45:38.290Z,99798.31
2019-01-17T18:48:35.845Z,99802.66
2019-01-17T18:51:18.497Z,99812.23
2019-01-17T18:55:04.593Z,99806.11
2019-01-17T19:01:46.988Z,99818.11
2019-01-17T19:10:43.807Z,99832.28
2019-01-17T19:13:23.622Z,99840.05
2019-01-17T19:16:17.577Z,99837.31
2019-01-17T19:19:55.533Z,99848.56
2019-01-17T19:23:03.230Z,99857.63
2019-01-17T19:35:53.123Z,99868.84
2019-01-17T19:38:45.324Z,99876.64
2019-01-17T19:42:05.752Z,99880.06
2019-01-17T19:47:48.984Z,99894.05
2019-01-17T19:50:38.969Z,99894.94
2019-01-17T19:53:52.765Z,99902.91
2019-01-17T19:56:40.636Z,99908.56
2019-01-17T19:59:44.700Z,99917.58
2019-01-17T20:05:21.568Z,99910.73
2019-01-17T20:08:19.187Z,99914.90
2019-01-17T20:11:43.954Z,99911.36
2019-01-17T20:21:19.324Z,99929.32
2019-01-17T20:58:24.257Z,100000.68
2019-01-17T21:01:37.909Z,100002.14
2019-01-17T21:04:40.690Z,100005.44
2019-01-17T21:08:18.422Z,100008.38
2019-01-17T21:09:58.900Z,100013.76
2019-01-17T21:12:33.064Z,100014.95
2019-01-17T21:15:11.979Z,100021.02
2019-01-17T21:18:01.264Z,100010.05
2019-01-17T21:20:34.641Z,100013.39
2019-01-17T21:23:18.750Z,100023.66
2019-01-17T21:26:17.332Z,100019.17
2019-01-17T21:28:56.003Z,100023.50
2019-01-17T21:31:49.682Z,100024.76
2019-01-17T21:34:27.749Z,100025.90
2019-01-17T21:37:12.919Z,100024.65
2019-01-17T21:39:47.918Z,100018.44
2019-01-17T21:42:25.432Z,100033.51
2019-01-17T21:45:01.176Z,100038.67
2019-01-17T21:47:58.795Z,100039.67
2019-01-17T21:50:49.495Z,100034.28
2019-01-17T21:53:29.314Z,100047.33
2019-01-17T21:55:57.819Z,100045.08
2019-01-17T21:58:35.304Z,100051.77
2019-01-17T22:01:18.283Z,100042.11
2019-01-17T22:03:56.756Z,100045.08
2019-01-17T22:06:45.688Z,100058.06
2019-01-17T22:09:19.066Z,100054.32
2019-01-17T22:11:54.268Z,100048.47
2019-01-17T22:14:43.966Z,100051.08
2019-01-17T22:17:27.524Z,100062.64
2019-01-17T22:20:10.638Z,100066.14
2019-01-17T22:22:49.309Z,100066.45
2019-01-17T22:25:23.068Z,100064.72
2019-01-17T22:28:04.284Z,100061.70
2019-01-17T22:30:37.864Z,100063.00
2019-01-17T22:33:10.425Z,100069.52
2019-01-17T22:35:45.179Z,100070.11
2019-01-17T22:38:17.099Z,100075.38
2019-01-17T22:40:49.476Z,100078.05
2019-01-17T22:43:27.803Z,100079.77
2019-01-17T22:45:59.576Z,100082.80
2019-01-17T22:48:34.380Z,100083.27
2019-01-17T22:51:06.186Z,100086.34
2019-01-17T22:53:42.512Z,100089.73
2019-01-17T22:56:20.430Z,100089.01
2019-01-17T22:58:53.786Z,100094.28
2019-01-17T23:01:30.189Z,100101.94
2019-01-17T23:04:02.244Z,100105.27
2019-01-17T23:06:34.081Z,100114.92
2019-01-17T23:09:10.507Z,100120.91
2019-01-17T23:11:43.700Z,100132.13
2019-01-17T23:14:15.453Z,100144.69
2019-01-17T23:16:52.123Z,100153.16
2019-01-17T23:19:29.566Z,100169.81
2019-01-17T23:22:04.342Z,100178.00
2019-01-17T23:24:43.114Z,100183.63
2019-01-17T23:27:16.283Z,100180.02
2019-01-17T23:29:51.294Z,100181.20
2019-01-17T23:32:23.031Z,100182.73
2019-01-17T23:34:54.875Z,100189.67
2019-01-17T23:37:26.580Z,100190.55
2019-01-17T23:40:01.189Z,100195.47
2019-01-17T23:42:35.869Z,100201.92
2019-01-17T23:45:09.811Z,100207.55
2019-01-17T23:47:41.493Z,100210.92
2019-01-17T23:50:16.791Z,100204.83
2019-01-17T23:52:48.691Z,100210.03
2019-01-17T23:55:22.091Z,100217.51
2019-01-17T23:57:55.389Z,100216.27
